sensor_id;sensor_type;location;lat;lon;timestamp;temperature;humidity
15821;DHT22;8011;51.650;7.240;2022-11-03T04:02:38;11.20;99.90
15821;DHT22;8011;51.650;7.240;2022-11-03T04:05:04;11.30;99.90
15821;DHT22;8011;51.650;7.240;2022-11-03T04:07:30;11.20;99.90
15821;DHT22;8011;51.650;7.240;2022-11-03T04:10:15;11.30;99.90
15821;DHT22;8011;51.650;7.240;2022-11-03T04:13:08;11.20;99.90
15821;DHT22;8011;51.650;7.240;2022-11-03T04:15:52;11.30;99.90
15821;DHT22;8011;51.650;7.240;2022-11-03T04:18:36;11.30;99.90
15821;DHT22;8011;51.650;7.240;2022-11-03T04:21:20;11.30;99.90
15821;DHT22;8011;51.650;7.240;2022-11-03T04:24:04;11.30;99.90
15821;DHT22;8011;51.650;7.240;2022-11-03T04:26:30;11.30;99.90
15821;DHT22;8011;51.650;7.240;2022-11-03T04:28:56;11.30;99.90
15821;DHT22;8011;51.650;7.240;2022-11-03T04:31:22;11.30;99.90
15821;DHT22;8011;51.650;7.240;2022-11-03T04:33:48;11.40;99.90
15821;DHT22;8011;51.650;7.240;2022-11-03T04:36:22;11.30;99.90
15821;DHT22;8011;51.650;7.240;2022-11-03T04:38:49;11.30;99.90
15821;DHT22;8011;51.650;7.240;2022-11-03T04:41:24;11.30;99.90
15821;DHT22;8011;51.650;7.240;2022-11-03T04:43:53;11.30;99.90
15821;DHT22;8011;51.650;7.240;2022-11-03T04:46:27;11.40;99.90
15821;DHT22;8011;51.650;7.240;2022-11-03T04:48:57;11.40;99.90
15821;DHT22;8011;51.650;7.240;2022-11-03T04:51:25;11.30;99.90
15821;DHT22;8011;51.650;7.240;2022-11-03T04:54:05;11.30;99.90
15821;DHT22;8011;51.650;7.240;2022-11-03T04:56:31;11.40;99.90
15821;DHT22;8011;51.650;7.240;2022-11-03T04:58:58;11.40;99.90
15821;DHT22;8011;51.650;7.240;2022-11-03T05:01:24;11.40;99.90
15821;DHT22;8011;51.650;7.240;2022-11-03T05:03:51;11.40;99.90
15821;DHT22;8011;51.650;7.240;2022-11-03T05:06:23;11.40;99.90
15821;DHT22;8011;51.650;7.240;2022-11-03T05:09:10;11.40;99.90
15821;DHT22;8011;51.650;7.240;2022-11-03T05:11:38;11.40;99.90
15821;DHT22;8011;51.650;7.240;2022-11-03T05:14:19;11.40;99.90
15821;DHT22;8011;51.650;7.240;2022-11-03T05:16:46;11.40;99.90
15821;DHT22;8011;51.650;7.240;2022-11-03T05:19:16;11.40;99.90
15821;DHT22;8011;51.650;7.240;2022-11-03T05:21:42;11.40;99.90
15821;DHT22;8011;51.650;7.240;2022-11-03T05:24:11;11.40;99.90
15821;DHT22;8011;51.650;7.240;2022-11-03T05:26:37;11.40;99.90
15821;DHT22;8011;51.650;7.240;2022-11-03T05:29:24;11.40;99.90
15821;DHT22;8011;51.650;7.240;2022-11-03T05:31:52;11.40;99.90
15821;DHT22;8011;51.650;7.240;2022-11-03T05:34:35;11.40;99.90
15821;DHT22;8011;51.650;7.240;2022-11-03T05:37:10;11.50;99.90
15821;DHT22;8011;51.650;7.240;2022-11-03T05:39:43;11.50;99.90
15821;DHT22;8011;51.650;7.240;2022-11-03T05:44:48;11.50;99.90
15821;DHT22;8011;51.650;7.240;2022-11-03T05:47:21;11.50;99.90
15821;DHT22;8011;51.650;7.240;2022-11-03T05:49:48;11.50;99.90
15821;DHT22;8011;51.650;7.240;2022-11-03T05:52:23;11.50;99.90
15821;DHT22;8011;51.650;7.240;2022-11-03T05:54:54;11.60;99.90
15821;DHT22;8011;51.650;7.240;2022-11-03T05:57:20;11.60;99.90
15821;DHT22;8011;51.650;7.240;2022-11-03T05:59:48;11.60;99.90
15821;DHT22;8011;51.650;7.240;2022-11-03T06:05:24;11.60;99.90
15821;DHT22;8011;51.650;7.240;2022-11-03T06:07:55;11.50;99.90
15821;DHT22;8011;51.650;7.240;2022-11-03T06:10:26;11.60;99.90
15821;DHT22;8011;51.650;7.240;2022-11-03T06:13:19;11.60;99.90
15821;DHT22;8011;51.650;7.240;2022-11-03T06:15:48;11.60;99.90
15821;DHT22;8011;51.650;7.240;2022-11-03T06:18:19;11.60;99.90
15821;DHT22;8011;51.650;7.240;2022-11-03T06:20:55;11.60;99.90
15821;DHT22;8011;51.650;7.240;2022-11-03T06:23:22;11.60;99.90
15821;DHT22;8011;51.650;7.240;2022-11-03T06:25:50;11.70;99.90
15821;DHT22;8011;51.650;7.240;2022-11-03T06:28:20;11.70;99.90
15821;DHT22;8011;51.650;7.240;2022-11-03T06:30:47;11.60;99.90
15821;DHT22;8011;51.650;7.240;2022-11-03T06:35:39;11.60;99.90
15821;DHT22;8011;51.650;7.240;2022-11-03T06:38:17;11.70;99.90
15821;DHT22;8011;51.650;7.240;2022-11-03T06:40:43;11.70;99.90
15821;DHT22;8011;51.650;7.240;2022-11-03T06:43:30;11.70;99.90
15821;DHT22;8011;51.650;7.240;2022-11-03T06:46:01;11.70;99.90
15821;DHT22;8011;51.650;7.240;2022-11-03T06:48:33;11.80;99.90
15821;DHT22;8011;51.650;7.240;2022-11-03T06:51:00;11.80;99.90
15821;DHT22;8011;51.650;7.240;2022-11-03T06:53:30;11.80;99.90
15821;DHT22;8011;51.650;7.240;2022-11-03T06:55:56;11.80;99.90
15821;DHT22;8011;51.650;7.240;2022-11-03T06:58:29;11.80;99.90
15821;DHT22;8011;51.650;7.240;2022-11-03T07:01:00;11.90;99.90
15821;DHT22;8011;51.650;7.240;2022-11-03T07:03:29;11.90;99.90
15821;DHT22;8011;51.650;7.240;2022-11-03T07:05:57;11.90;99.90
15821;DHT22;8011;51.650;7.240;2022-11-03T07:08:34;11.80;99.90
15821;DHT22;8011;51.650;7.240;2022-11-03T07:11:27;11.90;99.90
15821;DHT22;8011;51.650;7.240;2022-11-03T07:14:05;11.90;99.90
15821;DHT22;8011;51.650;7.240;2022-11-03T07:16:39;11.90;99.90
15821;DHT22;8011;51.650;7.240;2022-11-03T07:19:12;12.00;99.90
15821;DHT22;8011;51.650;7.240;2022-11-03T07:21:53;12.00;99.90
15821;DHT22;8011;51.650;7.240;2022-11-03T07:24:41;12.00;99.90
15821;DHT22;8011;51.650;7.240;2022-11-03T07:27:30;12.00;99.90
15821;DHT22;8011;51.650;7.240;2022-11-03T07:32:43;12.10;99.90
15821;DHT22;8011;51.650;7.240;2022-11-03T07:35:21;12.10;99.90
15821;DHT22;8011;51.650;7.240;2022-11-03T07:37:49;12.20;99.90
15821;DHT22;8011;51.650;7.240;2022-11-03T07:40:21;12.20;99.90
15821;DHT22;8011;51.650;7.240;2022-11-03T07:42:50;12.20;99.90
15821;DHT22;8011;51.650;7.240;2022-11-03T07:50:42;12.30;99.90
15821;DHT22;8011;51.650;7.240;2022-11-03T07:55:48;12.30;99.90
15821;DHT22;8011;51.650;7.240;2022-11-03T07:58:23;12.40;99.90
15821;DHT22;8011;51.650;7.240;2022-11-03T08:00:53;12.40;99.90
15821;DHT22;8011;51.650;7.240;2022-11-03T08:03:50;12.40;99.90
15821;DHT22;8011;51.650;7.240;2022-11-03T08:06:15;12.40;99.90
15821;DHT22;8011;51.650;7.240;2022-11-03T08:08:40;12.40;99.90
15821;DHT22;8011;51.650;7.240;2022-11-03T08:11:06;12.50;99.90
15821;DHT22;8011;51.650;7.240;2022-11-03T08:13:32;12.50;99.90
15821;DHT22;8011;51.650;7.240;2022-11-03T08:15:58;12.60;99.90
15821;DHT22;8011;51.650;7.240;2022-11-03T08:18:24;12.60;99.90
15821;DHT22;8011;51.650;7.240;2022-11-03T08:20:50;12.70;99.90
15821;DHT22;8011;51.650;7.240;2022-11-03T08:23:15;12.70;99.90
15821;DHT22;8011;51.650;7.240;2022-11-03T08:25:42;12.80;99.90
15821;DHT22;8011;51.650;7.240;2022-11-03T08:28:08;12.80;99.90
15821;DHT22;8011;51.650;7.240;2022-11-03T08:30:34;12.90;99.90
15821;DHT22;8011;51.650;7.240;2022-11-03T08:32:59;12.90;99.90
15821;DHT22;8011;51.650;7.240;2022-11-03T08:35:25;12.90;99.90
15821;DHT22;8011;51.650;7.240;2022-11-03T08:37:51;13.00;99.90
15821;DHT22;8011;51.650;7.240;2022-11-03T08:40:17;13.00;99.90
15821;DHT22;8011;51.650;7.240;2022-11-03T08:42:43;13.00;99.90
15821;DHT22;8011;51.650;7.240;2022-11-03T08:45:09;13.10;99.90
15821;DHT22;8011;51.650;7.240;2022-11-03T08:47:36;13.10;99.90
15821;DHT22;8011;51.650;7.240;2022-11-03T08:50:02;13.20;99.90
15821;DHT22;8011;51.650;7.240;2022-11-03T08:52:28;13.20;99.90
15821;DHT22;8011;51.650;7.240;2022-11-03T08:54:54;13.20;99.90
15821;DHT22;8011;51.650;7.240;2022-11-03T08:57:19;13.20;99.90
15821;DHT22;8011;51.650;7.240;2022-11-03T08:59:45;13.20;99.90
15821;DHT22;8011;51.650;7.240;2022-11-03T09:02:11;13.20;99.90
15821;DHT22;8011;51.650;7.240;2022-11-03T09:04:36;13.30;99.90
15821;DHT22;8011;51.650;7.240;2022-11-03T09:07:02;13.30;99.90
15821;DHT22;8011;51.650;7.240;2022-11-03T09:09:28;13.30;99.90
15821;DHT22;8011;51.650;7.240;2022-11-03T09:11:53;13.30;99.90
15821;DHT22;8011;51.650;7.240;2022-11-03T09:14:19;13.40;99.90
15821;DHT22;8011;51.650;7.240;2022-11-03T09:16:45;13.40;99.90
15821;DHT22;8011;51.650;7.240;2022-11-03T09:19:10;13.40;99.90
15821;DHT22;8011;51.650;7.240;2022-11-03T09:21:36;13.50;99.90
15821;DHT22;8011;51.650;7.240;2022-11-03T09:24:01;13.50;99.90
15821;DHT22;8011;51.650;7.240;2022-11-03T09:26:27;13.60;99.90
15821;DHT22;8011;51.650;7.240;2022-11-03T09:28:53;13.60;99.90
15821;DHT22;8011;51.650;7.240;2022-11-03T09:31:18;13.60;99.90
15821;DHT22;8011;51.650;7.240;2022-11-03T09:33:44;13.70;99.90
15821;DHT22;8011;51.650;7.240;2022-11-03T09:36:10;13.70;99.90
15821;DHT22;8011;51.650;7.240;2022-11-03T09:38:35;13.70;99.90
15821;DHT22;8011;51.650;7.240;2022-11-03T09:41:03;13.70;99.90
15821;DHT22;8011;51.650;7.240;2022-11-03T09:43:30;13.80;99.90
15821;DHT22;8011;51.650;7.240;2022-11-03T09:45:57;13.90;99.90
15821;DHT22;8011;51.650;7.240;2022-11-03T09:48:23;13.90;99.90
15821;DHT22;8011;51.650;7.240;2022-11-03T09:50:52;13.90;99.90
15821;DHT22;8011;51.650;7.240;2022-11-03T09:53:18;14.00;99.90
15821;DHT22;8011;51.650;7.240;2022-11-03T09:55:45;14.00;99.90
15821;DHT22;8011;51.650;7.240;2022-11-03T09:58:15;14.10;99.90
15821;DHT22;8011;51.650;7.240;2022-11-03T10:00:42;14.10;99.90
15821;DHT22;8011;51.650;7.240;2022-11-03T10:03:11;14.20;99.90
15821;DHT22;8011;51.650;7.240;2022-11-03T10:05:38;14.30;99.90
15821;DHT22;8011;51.650;7.240;2022-11-03T10:08:06;14.30;99.90
15821;DHT22;8011;51.650;7.240;2022-11-03T10:10:33;14.40;99.90
15821;DHT22;8011;51.650;7.240;2022-11-03T10:13:00;14.40;99.90
15821;DHT22;8011;51.650;7.240;2022-11-03T10:15:26;14.50;99.90
15821;DHT22;8011;51.650;7.240;2022-11-03T10:17:52;14.50;99.90
15821;DHT22;8011;51.650;7.240;2022-11-03T10:20:20;14.50;99.90
15821;DHT22;8011;51.650;7.240;2022-11-03T10:22:50;14.50;99.90
15821;DHT22;8011;51.650;7.240;2022-11-03T10:28:23;14.60;99.90
15821;DHT22;8011;51.650;7.240;2022-11-03T10:31:02;14.60;99.90
15821;DHT22;8011;51.650;7.240;2022-11-03T10:33:36;14.60;99.90
15821;DHT22;8011;51.650;7.240;2022-11-03T10:36:04;14.70;99.90
15821;DHT22;8011;51.650;7.240;2022-11-03T10:38:45;14.80;99.90
15821;DHT22;8011;51.650;7.240;2022-11-03T10:41:15;14.80;99.90
15821;DHT22;8011;51.650;7.240;2022-11-03T10:43:43;14.80;99.90
15821;DHT22;8011;51.650;7.240;2022-11-03T10:46:16;14.80;99.90
15821;DHT22;8011;51.650;7.240;2022-11-03T10:49:03;14.80;99.90
15821;DHT22;8011;51.650;7.240;2022-11-03T10:51:31;14.90;99.90
15821;DHT22;8011;51.650;7.240;2022-11-03T10:53:57;14.90;99.90
15821;DHT22;8011;51.650;7.240;2022-11-03T10:56:24;14.90;99.90
15821;DHT22;8011;51.650;7.240;2022-11-03T10:58:50;14.90;99.90
15821;DHT22;8011;51.650;7.240;2022-11-03T11:01:16;14.90;99.90
15821;DHT22;8011;51.650;7.240;2022-11-03T11:03:43;15.00;99.90
15821;DHT22;8011;51.650;7.240;2022-11-03T11:06:22;15.00;99.90
15821;DHT22;8011;51.650;7.240;2022-11-03T11:08:50;15.00;99.90
15821;DHT22;8011;51.650;7.240;2022-11-03T11:11:19;15.00;99.90
15821;DHT22;8011;51.650;7.240;2022-11-03T11:17:41;15.10;99.90
15821;DHT22;8011;51.650;7.240;2022-11-03T11:20:41;15.00;99.90
15821;DHT22;8011;51.650;7.240;2022-11-03T11:28:40;15.10;99.90
15821;DHT22;8011;51.650;7.240;2022-11-03T11:33:47;15.10;99.90
15821;DHT22;8011;51.650;7.240;2022-11-03T11:36:24;15.10;99.90
15821;DHT22;8011;51.650;7.240;2022-11-03T11:41:20;15.10;99.90
15821;DHT22;8011;51.650;7.240;2022-11-03T11:52:42;15.40;99.90
15821;DHT22;8011;51.650;7.240;2022-11-03T11:58:04;15.50;99.90
15821;DHT22;8011;51.650;7.240;2022-11-03T12:00:32;15.60;99.90
15821;DHT22;8011;51.650;7.240;2022-11-03T12:03:00;15.70;99.90
15821;DHT22;8011;51.650;7.240;2022-11-03T12:05:31;15.80;99.90
15821;DHT22;8011;51.650;7.240;2022-11-03T12:07:58;15.90;99.90
15821;DHT22;8011;51.650;7.240;2022-11-03T12:10:26;16.00;99.90
15821;DHT22;8011;51.650;7.240;2022-11-03T12:12:53;16.10;99.90
15821;DHT22;8011;51.650;7.240;2022-11-03T12:18:42;16.10;99.90
15821;DHT22;8011;51.650;7.240;2022-11-03T12:21:10;16.10;99.90
15821;DHT22;8011;51.650;7.240;2022-11-03T12:23:40;16.10;99.90
15821;DHT22;8011;51.650;7.240;2022-11-03T12:28:54;16.00;99.90
15821;DHT22;8011;51.650;7.240;2022-11-03T12:31:20;16.00;99.90
15821;DHT22;8011;51.650;7.240;2022-11-03T12:33:45;16.00;99.90
15821;DHT22;8011;51.650;7.240;2022-11-03T12:36:11;16.00;99.90
15821;DHT22;8011;51.650;7.240;2022-11-03T12:38:37;16.00;99.90
15821;DHT22;8011;51.650;7.240;2022-11-03T12:41:02;16.00;99.90
15821;DHT22;8011;51.650;7.240;2022-11-03T12:43:48;16.00;99.90
15821;DHT22;8011;51.650;7.240;2022-11-03T12:46:20;16.00;99.90
15821;DHT22;8011;51.650;7.240;2022-11-03T12:48:47;16.00;99.90
15821;DHT22;8011;51.650;7.240;2022-11-03T12:51:14;16.00;99.90
15821;DHT22;8011;51.650;7.240;2022-11-03T12:53:40;16.00;99.90
15821;DHT22;8011;51.650;7.240;2022-11-03T12:56:07;16.00;99.90
15821;DHT22;8011;51.650;7.240;2022-11-03T12:58:33;16.00;99.90
15821;DHT22;8011;51.650;7.240;2022-11-03T13:00:59;16.00;99.90
15821;DHT22;8011;51.650;7.240;2022-11-03T13:03:25;16.00;99.90
15821;DHT22;8011;51.650;7.240;2022-11-03T13:05:51;16.00;99.90
15821;DHT22;8011;51.650;7.240;2022-11-03T13:08:16;16.00;99.90
15821;DHT22;8011;51.650;7.240;2022-11-03T13:10:42;16.00;99.90
15821;DHT22;8011;51.650;7.240;2022-11-03T13:13:08;16.00;99.90
15821;DHT22;8011;51.650;7.240;2022-11-03T13:15:36;16.00;99.90
15821;DHT22;8011;51.650;7.240;2022-11-03T13:18:02;16.00;99.90
15821;DHT22;8011;51.650;7.240;2022-11-03T13:20:33;16.00;99.90
15821;DHT22;8011;51.650;7.240;2022-11-03T13:22:58;16.00;99.90
15821;DHT22;8011;51.650;7.240;2022-11-03T13:25:24;16.00;99.90
15821;DHT22;8011;51.650;7.240;2022-11-03T13:27:50;16.00;99.90
15821;DHT22;8011;51.650;7.240;2022-11-03T13:30:22;16.00;99.90
15821;DHT22;8011;51.650;7.240;2022-11-03T13:32:48;15.90;99.90
15821;DHT22;8011;51.650;7.240;2022-11-03T13:35:14;15.90;99.90
15821;DHT22;8011;51.650;7.240;2022-11-03T13:37:39;15.90;99.90
15821;DHT22;8011;51.650;7.240;2022-11-03T13:40:06;16.00;99.90
15821;DHT22;8011;51.650;7.240;2022-11-03T13:42:32;15.90;99.90
15821;DHT22;8011;51.650;7.240;2022-11-03T13:44:57;15.90;99.90
15821;DHT22;8011;51.650;7.240;2022-11-03T13:47:23;15.80;99.90
15821;DHT22;8011;51.650;7.240;2022-11-03T13:49:50;15.90;99.90
15821;DHT22;8011;51.650;7.240;2022-11-03T13:52:17;15.80;99.90
15821;DHT22;8011;51.650;7.240;2022-11-03T13:54:43;15.80;99.90
15821;DHT22;8011;51.650;7.240;2022-11-03T13:57:08;15.80;99.90
15821;DHT22;8011;51.650;7.240;2022-11-03T13:59:34;15.80;99.90
15821;DHT22;8011;51.650;7.240;2022-11-03T14:02:00;15.80;99.90
15821;DHT22;8011;51.650;7.240;2022-11-03T14:04:26;15.80;99.90
15821;DHT22;8011;51.650;7.240;2022-11-03T14:06:51;15.70;99.90
15821;DHT22;8011;51.650;7.240;2022-11-03T14:09:17;15.80;99.90
15821;DHT22;8011;51.650;7.240;2022-11-03T14:11:43;15.70;99.90
15821;DHT22;8011;51.650;7.240;2022-11-03T14:14:27;15.70;99.90
15821;DHT22;8011;51.650;7.240;2022-11-03T14:16:52;15.70;99.90
15821;DHT22;8011;51.650;7.240;2022-11-03T14:19:18;15.70;99.90
15821;DHT22;8011;51.650;7.240;2022-11-03T14:21:44;15.70;99.90
15821;DHT22;8011;51.650;7.240;2022-11-03T14:24:09;15.70;99.90
15821;DHT22;8011;51.650;7.240;2022-11-03T14:26:35;15.60;99.90
15821;DHT22;8011;51.650;7.240;2022-11-03T14:29:01;15.60;99.90
15821;DHT22;8011;51.650;7.240;2022-11-03T14:31:27;15.60;99.90
15821;DHT22;8011;51.650;7.240;2022-11-03T14:33:52;15.50;99.90
15821;DHT22;8011;51.650;7.240;2022-11-03T14:36:18;15.50;99.90
15821;DHT22;8011;51.650;7.240;2022-11-03T14:38:43;15.50;99.90
15821;DHT22;8011;51.650;7.240;2022-11-03T14:41:09;15.50;99.90
15821;DHT22;8011;51.650;7.240;2022-11-03T14:43:53;15.50;99.90
15821;DHT22;8011;51.650;7.240;2022-11-03T14:46:19;15.50;99.90
15821;DHT22;8011;51.650;7.240;2022-11-03T14:48:44;15.50;99.90
15821;DHT22;8011;51.650;7.240;2022-11-03T14:51:10;15.40;99.90
15821;DHT22;8011;51.650;7.240;2022-11-03T14:53:36;15.40;99.90
15821;DHT22;8011;51.650;7.240;2022-11-03T14:56:02;15.40;99.90
15821;DHT22;8011;51.650;7.240;2022-11-03T14:58:30;15.50;99.90
15821;DHT22;8011;51.650;7.240;2022-11-03T15:00:56;15.50;99.90
15821;DHT22;8011;51.650;7.240;2022-11-03T15:03:22;15.50;99.90
15821;DHT22;8011;51.650;7.240;2022-11-03T15:05:48;15.50;99.90
15821;DHT22;8011;51.650;7.240;2022-11-03T15:08:16;15.50;99.90
15821;DHT22;8011;51.650;7.240;2022-11-03T15:10:42;15.50;99.90
15821;DHT22;8011;51.650;7.240;2022-11-03T15:13:08;15.50;99.90
15821;DHT22;8011;51.650;7.240;2022-11-03T15:15:34;15.40;99.90
15821;DHT22;8011;51.650;7.240;2022-11-03T15:18:03;15.40;99.90
15821;DHT22;8011;51.650;7.240;2022-11-03T15:20:29;15.50;99.90
15821;DHT22;8011;51.650;7.240;2022-11-03T15:22:55;15.50;99.90
15821;DHT22;8011;51.650;7.240;2022-11-03T15:25:21;15.50;99.90
15821;DHT22;8011;51.650;7.240;2022-11-03T15:27:46;15.40;99.90
15821;DHT22;8011;51.650;7.240;2022-11-03T15:30:12;15.40;99.90
15821;DHT22;8011;51.650;7.240;2022-11-03T15:32:39;15.30;99.90
15821;DHT22;8011;51.650;7.240;2022-11-03T15:35:05;15.30;99.90
15821;DHT22;8011;51.650;7.240;2022-11-03T15:37:31;15.30;99.90
15821;DHT22;8011;51.650;7.240;2022-11-03T15:39:56;15.30;99.90
15821;DHT22;8011;51.650;7.240;2022-11-03T15:42:22;15.20;99.90
15821;DHT22;8011;51.650;7.240;2022-11-03T15:44:47;15.10;99.90
15821;DHT22;8011;51.650;7.240;2022-11-03T15:47:13;15.20;99.90
15821;DHT22;8011;51.650;7.240;2022-11-03T15:49:39;15.10;99.90
15821;DHT22;8011;51.650;7.240;2022-11-03T15:52:04;15.10;99.90
15821;DHT22;8011;51.650;7.240;2022-11-03T15:54:30;14.90;99.90
15821;DHT22;8011;51.650;7.240;2022-11-03T15:56:56;14.90;99.90
15821;DHT22;8011;51.650;7.240;2022-11-03T15:59:22;14.80;99.90
15821;DHT22;8011;51.650;7.240;2022-11-03T16:01:47;14.70;99.90
15821;DHT22;8011;51.650;7.240;2022-11-03T16:04:13;14.60;99.90
15821;DHT22;8011;51.650;7.240;2022-11-03T16:06:40;14.50;99.90
15821;DHT22;8011;51.650;7.240;2022-11-03T16:09:06;14.50;99.90
15821;DHT22;8011;51.650;7.240;2022-11-03T16:11:31;14.30;99.90
15821;DHT22;8011;51.650;7.240;2022-11-03T16:13:57;14.30;99.90
15821;DHT22;8011;51.650;7.240;2022-11-03T16:16:24;14.20;99.90
15821;DHT22;8011;51.650;7.240;2022-11-03T16:18:50;14.10;99.90
15821;DHT22;8011;51.650;7.240;2022-11-03T16:21:15;14.00;99.90
15821;DHT22;8011;51.650;7.240;2022-11-03T16:23:41;14.00;99.90
15821;DHT22;8011;51.650;7.240;2022-11-03T16:26:06;13.90;99.90
15821;DHT22;8011;51.650;7.240;2022-11-03T16:28:34;13.90;99.90
15821;DHT22;8011;51.650;7.240;2022-11-03T16:30:59;13.80;99.90
15821;DHT22;8011;51.650;7.240;2022-11-03T16:33:25;13.80;99.90
15821;DHT22;8011;51.650;7.240;2022-11-03T16:35:51;13.80;99.90
15821;DHT22;8011;51.650;7.240;2022-11-03T16:38:16;13.70;99.90
15821;DHT22;8011;51.650;7.240;2022-11-03T16:40:42;13.60;99.90
15821;DHT22;8011;51.650;7.240;2022-11-03T16:43:08;13.50;99.90
15821;DHT22;8011;51.650;7.240;2022-11-03T16:45:34;13.50;99.90
15821;DHT22;8011;51.650;7.240;2022-11-03T16:47:59;13.40;99.90
15821;DHT22;8011;51.650;7.240;2022-11-03T16:50:25;13.40;99.90
15821;DHT22;8011;51.650;7.240;2022-11-03T16:52:51;13.40;99.90
15821;DHT22;8011;51.650;7.240;2022-11-03T16:55:18;13.30;99.90
15821;DHT22;8011;51.650;7.240;2022-11-03T16:57:44;13.30;99.90
15821;DHT22;8011;51.650;7.240;2022-11-03T17:00:15;13.30;99.90
15821;DHT22;8011;51.650;7.240;2022-11-03T17:02:42;13.30;99.90
15821;DHT22;8011;51.650;7.240;2022-11-03T17:05:09;13.30;99.90
15821;DHT22;8011;51.650;7.240;2022-11-03T17:07:35;13.20;99.90
15821;DHT22;8011;51.650;7.240;2022-11-03T17:10:01;13.20;99.90
15821;DHT22;8011;51.650;7.240;2022-11-03T17:12:27;13.20;99.90
15821;DHT22;8011;51.650;7.240;2022-11-03T17:14:53;13.20;99.90
15821;DHT22;8011;51.650;7.240;2022-11-03T17:17:18;13.10;99.90
15821;DHT22;8011;51.650;7.240;2022-11-03T17:19:44;13.10;99.90
15821;DHT22;8011;51.650;7.240;2022-11-03T17:22:10;13.10;99.90
15821;DHT22;8011;51.650;7.240;2022-11-03T17:24:35;13.10;99.90
15821;DHT22;8011;51.650;7.240;2022-11-03T17:29:47;13.00;99.90
15821;DHT22;8011;51.650;7.240;2022-11-03T17:32:24;13.00;99.90
15821;DHT22;8011;51.650;7.240;2022-11-03T17:34:51;13.00;99.90
15821;DHT22;8011;51.650;7.240;2022-11-03T17:37:17;12.90;99.90
15821;DHT22;8011;51.650;7.240;2022-11-03T17:39:43;12.90;99.90
15821;DHT22;8011;51.650;7.240;2022-11-03T17:44:47;12.90;99.90
15821;DHT22;8011;51.650;7.240;2022-11-03T17:47:13;12.90;99.90
15821;DHT22;8011;51.650;7.240;2022-11-03T17:49:40;12.90;99.90
15821;DHT22;8011;51.650;7.240;2022-11-03T17:52:12;12.90;99.90
15821;DHT22;8011;51.650;7.240;2022-11-03T17:54:38;12.90;99.90
15821;DHT22;8011;51.650;7.240;2022-11-03T17:57:04;12.90;99.90
15821;DHT22;8011;51.650;7.240;2022-11-03T17:59:30;12.90;99.90
15821;DHT22;8011;51.650;7.240;2022-11-03T18:01:56;12.90;99.90
15821;DHT22;8011;51.650;7.240;2022-11-03T18:04:21;12.80;99.90
15821;DHT22;8011;51.650;7.240;2022-11-03T18:06:47;12.80;99.90
15821;DHT22;8011;51.650;7.240;2022-11-03T18:09:13;12.80;99.90
15821;DHT22;8011;51.650;7.240;2022-11-03T18:11:40;12.80;99.90
15821;DHT22;8011;51.650;7.240;2022-11-03T18:14:26;12.80;99.90
15821;DHT22;8011;51.650;7.240;2022-11-03T18:16:53;12.80;99.90
15821;DHT22;8011;51.650;7.240;2022-11-03T18:19:19;12.80;99.90
15821;DHT22;8011;51.650;7.240;2022-11-03T18:21:46;12.80;99.90
15821;DHT22;8011;51.650;7.240;2022-11-03T18:24:14;12.80;99.90
15821;DHT22;8011;51.650;7.240;2022-11-03T18:26:40;12.80;99.90
15821;DHT22;8011;51.650;7.240;2022-11-03T18:29:06;12.90;99.90
15821;DHT22;8011;51.650;7.240;2022-11-03T18:31:43;12.90;99.90
15821;DHT22;8011;51.650;7.240;2022-11-03T18:34:22;12.80;99.90
15821;DHT22;8011;51.650;7.240;2022-11-03T18:36:49;12.80;99.90
15821;DHT22;8011;51.650;7.240;2022-11-03T18:39:21;12.80;99.90
15821;DHT22;8011;51.650;7.240;2022-11-03T18:41:47;12.80;99.90
15821;DHT22;8011;51.650;7.240;2022-11-03T18:44:19;12.80;99.90
15821;DHT22;8011;51.650;7.240;2022-11-03T18:46:46;12.80;99.90
15821;DHT22;8011;51.650;7.240;2022-11-03T18:49:13;12.90;99.90
15821;DHT22;8011;51.650;7.240;2022-11-03T18:51:47;12.80;99.90
15821;DHT22;8011;51.650;7.240;2022-11-03T18:54:15;12.80;99.90
15821;DHT22;8011;51.650;7.240;2022-11-03T18:56:42;12.80;99.90
15821;DHT22;8011;51.650;7.240;2022-11-03T18:59:18;12.80;99.90
15821;DHT22;8011;51.650;7.240;2022-11-03T19:01:44;12.80;99.90
15821;DHT22;8011;51.650;7.240;2022-11-03T19:04:11;12.80;99.90
15821;DHT22;8011;51.650;7.240;2022-11-03T19:06:40;12.90;99.90
15821;DHT22;8011;51.650;7.240;2022-11-03T19:09:08;12.90;99.90
15821;DHT22;8011;51.650;7.240;2022-11-03T19:11:36;12.80;99.90
15821;DHT22;8011;51.650;7.240;2022-11-03T19:14:02;12.90;99.90
15821;DHT22;8011;51.650;7.240;2022-11-03T19:16:27;12.90;99.90
15821;DHT22;8011;51.650;7.240;2022-11-03T19:18:55;12.90;99.90
15821;DHT22;8011;51.650;7.240;2022-11-03T19:21:22;12.90;99.90
15821;DHT22;8011;51.650;7.240;2022-11-03T19:23:49;13.00;99.90
15821;DHT22;8011;51.650;7.240;2022-11-03T19:26:25;12.90;99.90
15821;DHT22;8011;51.650;7.240;2022-11-03T19:29:01;12.90;99.90
15821;DHT22;8011;51.650;7.240;2022-11-03T19:31:48;12.90;99.90
15821;DHT22;8011;51.650;7.240;2022-11-03T19:34:23;12.90;99.90
15821;DHT22;8011;51.650;7.240;2022-11-03T19:36:51;12.90;99.90
15821;DHT22;8011;51.650;7.240;2022-11-03T19:39:34;12.90;99.90
15821;DHT22;8011;51.650;7.240;2022-11-03T19:42:02;12.90;99.90
15821;DHT22;8011;51.650;7.240;2022-11-03T19:44:52;12.90;99.90
15821;DHT22;8011;51.650;7.240;2022-11-03T19:47:18;12.90;99.90
15821;DHT22;8011;51.650;7.240;2022-11-03T19:49:45;12.90;99.90
15821;DHT22;8011;51.650;7.240;2022-11-03T19:52:13;12.90;99.90
15821;DHT22;8011;51.650;7.240;2022-11-03T19:54:47;12.80;99.90
15821;DHT22;8011;51.650;7.240;2022-11-03T19:57:13;12.90;99.90
15821;DHT22;8011;51.650;7.240;2022-11-03T19:59:42;12.90;99.90
15821;DHT22;8011;51.650;7.240;2022-11-03T20:02:09;12.90;99.90
15821;DHT22;8011;51.650;7.240;2022-11-03T20:04:35;12.90;99.90
15821;DHT22;8011;51.650;7.240;2022-11-03T20:07:04;12.90;99.90
15821;DHT22;8011;51.650;7.240;2022-11-03T20:09:31;12.90;99.90
15821;DHT22;8011;51.650;7.240;2022-11-03T20:12:02;12.90;99.90
15821;DHT22;8011;51.650;7.240;2022-11-03T20:14:29;12.90;99.90
15821;DHT22;8011;51.650;7.240;2022-11-03T20:17:15;12.80;99.90
15821;DHT22;8011;51.650;7.240;2022-11-03T20:19:48;12.80;99.90
15821;DHT22;8011;51.650;7.240;2022-11-03T20:22:26;12.80;99.90
15821;DHT22;8011;51.650;7.240;2022-11-03T20:24:59;12.80;99.90
15821;DHT22;8011;51.650;7.240;2022-11-03T20:27:28;12.80;99.90
15821;DHT22;8011;51.650;7.240;2022-11-03T20:29:54;12.80;99.90
15821;DHT22;8011;51.650;7.240;2022-11-03T20:32:19;12.80;99.90
15821;DHT22;8011;51.650;7.240;2022-11-03T20:34:45;12.80;99.90
15821;DHT22;8011;51.650;7.240;2022-11-03T20:37:18;12.80;99.90
15821;DHT22;8011;51.650;7.240;2022-11-03T20:39:46;12.80;99.90
15821;DHT22;8011;51.650;7.240;2022-11-03T20:42:25;12.80;99.90
15821;DHT22;8011;51.650;7.240;2022-11-03T20:44:51;12.80;99.90
15821;DHT22;8011;51.650;7.240;2022-11-03T20:47:17;12.80;99.90
15821;DHT22;8011;51.650;7.240;2022-11-03T20:49:44;12.80;99.90
15821;DHT22;8011;51.650;7.240;2022-11-03T20:52:13;12.70;99.90
15821;DHT22;8011;51.650;7.240;2022-11-03T20:54:41;12.70;99.90
15821;DHT22;8011;51.650;7.240;2022-11-03T20:57:12;12.70;99.90